Terminal Aerodrome Forecast
Issued by NWS

Home | Current Version | Previous Version | Text Only | Print | Product List | Glossary On
Versions: 1 2 3 4 5 6 7 8 9 10 11 12 13 14 15 16 17 18 19 20 21 22 23 24 25 26 27 28 29 30 31 32 33 34 35 36 37 38 39 40
000
FTUS41 KBOX 281121
TAFHYA
TAF
KHYA 281121Z 2812/2912 03010KT 5SM -SHRA OVC008
     FM281700 01015G25KT 4SM -SHRA OVC008
     FM282000 01015G24KT 2SM -SHSN OVC008
     FM290200 36009KT P6SM OVC008
     FM290700 36009KT P6SM OVC010=

USA.gov is the U.S. government's official web portal to all federal, state and local government web resources and services.